createdAt,value
2023-01-29T00:02:06.204Z,6.10
2023-01-29T00:04:34.242Z,6.17
2023-01-29T00:07:01.534Z,5.20
2023-01-29T00:09:30.720Z,5.47
2023-01-29T00:11:58.159Z,5.47
2023-01-29T00:14:26.676Z,4.93
2023-01-29T00:16:54.539Z,6.33
2023-01-29T00:19:22.062Z,9.60
2023-01-29T00:21:50.301Z,5.53
2023-01-29T00:24:17.680Z,6.03
2023-01-29T00:26:45.130Z,7.00
2023-01-29T00:29:12.765Z,6.70
2023-01-29T00:31:40.200Z,5.67
2023-01-29T00:34:07.537Z,6.40
2023-01-29T00:36:34.790Z,6.40
2023-01-29T00:39:09.808Z,6.00
2023-01-29T00:41:56.184Z,6.50
2023-01-29T00:44:42.312Z,6.27
2023-01-29T00:47:30.006Z,5.03
2023-01-29T00:49:57.768Z,5.97
2023-01-29T00:52:25.289Z,7.73
2023-01-29T00:54:54.101Z,7.23
2023-01-29T00:57:21.426Z,7.70
2023-01-29T00:59:48.691Z,7.23
2023-01-29T01:02:34.390Z,7.10
2023-01-29T01:05:02.368Z,8.30
2023-01-29T01:07:30.314Z,7.30
2023-01-29T01:10:16.608Z,8.40
2023-01-29T01:12:44.086Z,8.80
2023-01-29T01:15:11.531Z,8.90
2023-01-29T01:17:38.821Z,8.80
2023-01-29T01:20:06.819Z,9.30
2023-01-29T01:22:35.136Z,8.43
2023-01-29T01:25:03.406Z,8.83
2023-01-29T01:27:30.693Z,10.30
2023-01-29T01:29:57.935Z,9.47
2023-01-29T01:32:25.391Z,8.00
2023-01-29T01:34:52.808Z,11.40
2023-01-29T01:37:20.126Z,10.70
2023-01-29T01:39:48.235Z,8.90
2023-01-29T01:42:16.355Z,10.50
2023-01-29T01:44:53.898Z,11.47
2023-01-29T01:47:26.286Z,9.30
2023-01-29T01:49:54.605Z,9.40
2023-01-29T01:52:22.706Z,10.80
2023-01-29T01:54:51.194Z,10.60
2023-01-29T01:57:24.587Z,11.93
2023-01-29T01:59:57.492Z,9.73
2023-01-29T02:02:43.591Z,9.93
2023-01-29T02:05:32.047Z,9.80
2023-01-29T02:08:17.682Z,8.80
2023-01-29T02:10:47.364Z,9.40
2023-01-29T02:13:17.197Z,9.97
2023-01-29T02:15:48.008Z,9.33
2023-01-29T02:18:17.380Z,10.33
2023-01-29T02:20:49.041Z,8.30
2023-01-29T02:23:57.827Z,9.20
2023-01-29T02:27:00.493Z,9.73
2023-01-29T02:29:37.418Z,8.93
2023-01-29T02:32:19.736Z,7.70
2023-01-29T02:35:11.552Z,8.97
2023-01-29T02:37:45.324Z,8.67
2023-01-29T02:40:22.002Z,9.10
2023-01-29T02:42:55.039Z,8.70
2023-01-29T02:45:32.464Z,10.00
2023-01-29T02:48:02.112Z,7.90
2023-01-29T02:50:36.966Z,7.50
2023-01-29T02:53:10.017Z,9.10
2023-01-29T02:55:44.407Z,9.03
2023-01-29T02:58:17.059Z,9.17
2023-01-29T03:00:47.169Z,9.77
2023-01-29T03:03:19.093Z,8.93
2023-01-29T03:05:54.462Z,10.30
2023-01-29T03:08:36.372Z,9.70
2023-01-29T03:11:05.967Z,8.07
2023-01-29T03:13:38.244Z,8.17
2023-01-29T03:16:12.096Z,8.30
2023-01-29T03:18:45.624Z,8.73
2023-01-29T03:21:35.800Z,9.70
2023-01-29T03:24:23.854Z,8.40
2023-01-29T03:27:10.213Z,12.73
2023-01-29T03:29:57.654Z,8.27
2023-01-29T03:32:28.163Z,8.70
2023-01-29T03:35:00.382Z,8.70
2023-01-29T03:37:33.851Z,9.20
2023-01-29T03:40:01.772Z,8.87
2023-01-29T03:42:36.441Z,9.13
2023-01-29T03:45:09.915Z,9.37
2023-01-29T03:47:45.878Z,9.03
2023-01-29T03:50:20.926Z,8.67
2023-01-29T03:52:51.673Z,8.30
2023-01-29T03:55:24.147Z,7.40
2023-01-29T03:57:57.445Z,9.27
2023-01-29T04:00:29.751Z,8.73
2023-01-29T04:03:06.763Z,7.67
2023-01-29T04:05:43.277Z,6.83
2023-01-29T04:08:14.935Z,7.00
2023-01-29T04:10:44.794Z,8.60
2023-01-29T04:13:14.235Z,8.07
2023-01-29T04:15:46.310Z,9.20
2023-01-29T04:18:14.405Z,9.30
2023-01-29T04:20:42.017Z,8.80
2023-01-29T04:23:21.007Z,9.97
2023-01-29T04:25:53.617Z,8.23
2023-01-29T04:28:25.749Z,8.30
2023-01-29T04:30:58.926Z,8.90
2023-01-29T04:33:35.119Z,8.73
2023-01-29T04:36:16.303Z,8.10
2023-01-29T04:38:54.418Z,8.17
2023-01-29T04:41:25.785Z,8.73
2023-01-29T04:44:03.379Z,9.03
2023-01-29T04:46:39.300Z,9.23
2023-01-29T04:49:17.046Z,9.67
2023-01-29T04:51:51.104Z,8.77
2023-01-29T04:54:27.373Z,9.07
2023-01-29T04:57:05.462Z,9.00
2023-01-29T04:59:36.675Z,9.87
2023-01-29T05:02:07.591Z,9.37
2023-01-29T05:04:37.029Z,9.93
2023-01-29T05:07:08.221Z,10.70
2023-01-29T05:09:36.875Z,9.83
2023-01-29T05:12:06.839Z,10.00
2023-01-29T05:14:35.236Z,6.80
2023-01-29T05:17:08.972Z,9.80
2023-01-29T05:19:36.911Z,7.73
2023-01-29T05:22:06.347Z,7.60
2023-01-29T05:24:35.416Z,9.07
2023-01-29T05:27:20.752Z,10.07
2023-01-29T05:29:48.783Z,9.30
2023-01-29T05:32:16.471Z,10.03
2023-01-29T05:34:44.457Z,11.57
2023-01-29T05:37:11.716Z,8.80
2023-01-29T05:39:39.018Z,7.90
2023-01-29T05:42:06.397Z,9.90
2023-01-29T05:44:33.679Z,9.17
2023-01-29T05:47:01.983Z,8.23
2023-01-29T05:49:29.268Z,8.60
2023-01-29T05:51:57.209Z,8.90
2023-01-29T05:54:24.509Z,9.40
2023-01-29T05:56:51.791Z,8.83
2023-01-29T05:59:19.510Z,9.07
2023-01-29T06:01:46.878Z,8.50
2023-01-29T06:04:14.230Z,9.00
2023-01-29T06:06:41.523Z,6.87
2023-01-29T06:09:11.479Z,8.53
2023-01-29T06:11:38.896Z,8.87
2023-01-29T06:14:06.257Z,8.17
2023-01-29T06:16:33.577Z,7.27
2023-01-29T06:19:00.927Z,7.87
2023-01-29T06:21:28.268Z,7.57
2023-01-29T06:23:55.618Z,7.97
2023-01-29T06:26:23.719Z,9.10
2023-01-29T06:28:51.397Z,7.20
2023-01-29T06:31:37.809Z,8.00
2023-01-29T06:34:06.406Z,7.83
2023-01-29T06:36:33.764Z,8.30
2023-01-29T06:39:01.041Z,6.93
2023-01-29T06:41:29.050Z,9.30
2023-01-29T06:43:56.357Z,9.43
2023-01-29T06:46:23.683Z,9.23
2023-01-29T06:48:50.985Z,8.23
2023-01-29T06:51:18.378Z,10.00
2023-01-29T06:53:46.788Z,16.40
2023-01-29T06:56:14.274Z,8.07
2023-01-29T06:58:42.909Z,9.60
2023-01-29T07:01:15.499Z,8.27
2023-01-29T07:03:52.603Z,9.33
2023-01-29T07:06:19.930Z,9.30
2023-01-29T07:08:47.219Z,10.53
2023-01-29T07:11:14.528Z,10.43
2023-01-29T07:13:42.513Z,12.63
2023-01-29T07:16:10.367Z,9.77
2023-01-29T07:18:37.684Z,10.80
2023-01-29T07:21:06.375Z,12.27
2023-01-29T07:23:34.195Z,10.93
2023-01-29T07:26:02.790Z,9.03
2023-01-29T07:28:30.050Z,9.70
2023-01-29T07:30:59.028Z,10.07
2023-01-29T07:33:26.689Z,9.10
2023-01-29T07:35:54.128Z,9.17
2023-01-29T07:38:21.776Z,10.20
2023-01-29T07:40:49.769Z,11.13
2023-01-29T07:43:17.162Z,10.03
2023-01-29T07:45:44.472Z,7.90
2023-01-29T07:48:13.579Z,7.60
2023-01-29T07:50:43.264Z,9.07
2023-01-29T07:53:13.960Z,8.70
2023-01-29T07:55:43.199Z,7.23
2023-01-29T07:58:10.808Z,10.27
2023-01-29T08:00:38.167Z,10.53
2023-01-29T08:03:07.265Z,9.77
2023-01-29T08:05:35.264Z,9.57
2023-01-29T08:08:06.942Z,9.87
2023-01-29T08:10:35.644Z,8.50
2023-01-29T08:13:03.924Z,12.60
2023-01-29T08:15:32.013Z,10.67
2023-01-29T08:18:00.570Z,9.23
2023-01-29T08:20:27.936Z,8.30
2023-01-29T08:23:01.154Z,9.67
2023-01-29T08:25:29.012Z,9.67
2023-01-29T08:27:57.686Z,8.80
2023-01-29T08:30:25.173Z,9.57
2023-01-29T08:32:52.447Z,10.03
2023-01-29T08:35:20.245Z,9.43
2023-01-29T08:37:53.916Z,10.13
2023-01-29T08:40:22.172Z,11.03
2023-01-29T08:42:49.485Z,11.77
2023-01-29T08:45:17.072Z,9.87
2023-01-29T08:47:48.458Z,13.37
2023-01-29T08:50:16.919Z,10.40
2023-01-29T08:52:44.667Z,11.10
2023-01-29T08:55:12.565Z,11.30
2023-01-29T08:57:40.476Z,9.97
2023-01-29T09:00:09.905Z,13.53
2023-01-29T09:02:38.017Z,13.27
2023-01-29T09:05:06.077Z,10.37
2023-01-29T09:07:33.805Z,9.70
2023-01-29T09:10:02.067Z,9.70
2023-01-29T09:12:29.350Z,11.63
2023-01-29T09:14:57.256Z,9.60
2023-01-29T09:17:24.539Z,11.20
2023-01-29T09:19:52.425Z,12.07
2023-01-29T09:22:19.843Z,10.50
2023-01-29T09:24:47.123Z,10.70
2023-01-29T09:27:14.428Z,8.60
2023-01-29T09:29:41.722Z,11.80
2023-01-29T09:32:09.663Z,11.80
2023-01-29T09:34:36.916Z,11.57
2023-01-29T09:37:04.423Z,10.70
2023-01-29T09:39:31.697Z,12.00
2023-01-29T09:42:06.957Z,10.83
2023-01-29T09:44:55.233Z,12.70
2023-01-29T09:47:26.586Z,9.17
2023-01-29T09:49:58.019Z,10.73
2023-01-29T09:52:28.122Z,10.20
2023-01-29T09:55:01.523Z,12.03
2023-01-29T09:57:36.851Z,12.17
2023-01-29T10:00:05.002Z,11.30
2023-01-29T10:02:52.138Z,10.60
2023-01-29T10:05:42.528Z,9.70
2023-01-29T10:08:40.881Z,12.60
2023-01-29T10:11:18.703Z,12.47
2023-01-29T10:13:55.555Z,11.67
2023-01-29T10:16:35.842Z,11.73
2023-01-29T10:19:33.439Z,11.83
2023-01-29T10:22:10.911Z,10.23
2023-01-29T10:24:44.636Z,10.60
2023-01-29T10:27:15.196Z,11.20
2023-01-29T10:29:43.771Z,11.53
2023-01-29T10:32:16.132Z,11.10
2023-01-29T10:34:48.845Z,10.90
2023-01-29T10:37:17.943Z,16.00
2023-01-29T10:39:45.472Z,12.20
2023-01-29T10:42:31.155Z,16.00
2023-01-29T10:45:10.083Z,14.37
2023-01-29T10:48:20.357Z,12.03
2023-01-29T10:50:52.565Z,12.10
2023-01-29T10:53:38.145Z,11.97
2023-01-29T10:56:23.260Z,13.50
2023-01-29T10:58:54.736Z,13.80
2023-01-29T11:01:22.505Z,11.67
2023-01-29T11:03:57.013Z,13.70
2023-01-29T11:06:29.384Z,15.57
2023-01-29T11:09:04.503Z,14.03
2023-01-29T11:11:39.082Z,13.27
2023-01-29T11:14:10.803Z,14.47
2023-01-29T11:16:43.656Z,18.10
2023-01-29T11:19:11.376Z,13.00
2023-01-29T11:21:55.466Z,14.07
2023-01-29T11:24:22.778Z,15.73
2023-01-29T11:26:51.844Z,13.00
2023-01-29T11:29:38.705Z,13.37
2023-01-29T11:32:09.720Z,10.80
2023-01-29T11:35:00.463Z,12.63
2023-01-29T11:37:37.083Z,13.83
2023-01-29T11:40:43.200Z,9.67
2023-01-29T11:43:39.063Z,13.50
2023-01-29T11:46:12.917Z,13.00
2023-01-29T11:48:43.034Z,12.83
2023-01-29T11:53:42.634Z,14.00
2023-01-29T11:56:22.554Z,16.20
2023-01-29T11:58:52.399Z,14.27
2023-01-29T12:01:30.289Z,12.43
2023-01-29T12:03:58.037Z,14.67
2023-01-29T12:06:33.459Z,13.07
2023-01-29T12:09:03.041Z,13.00
2023-01-29T12:11:33.285Z,12.13
2023-01-29T12:14:03.058Z,11.90
2023-01-29T12:16:34.894Z,15.63
2023-01-29T12:19:10.348Z,14.93
2023-01-29T12:21:45.986Z,12.13
2023-01-29T12:24:33.946Z,12.07
2023-01-29T12:27:08.962Z,17.37
2023-01-29T12:29:45.642Z,15.40
2023-01-29T12:32:26.179Z,11.07
2023-01-29T12:34:58.980Z,13.50
2023-01-29T12:37:35.283Z,14.40
2023-01-29T12:40:11.010Z,10.10
2023-01-29T12:42:43.150Z,13.97
2023-01-29T12:45:16.495Z,12.60
2023-01-29T12:47:48.115Z,13.80
2023-01-29T12:50:20.798Z,10.20
2023-01-29T12:52:52.125Z,12.00
2023-01-29T12:55:24.407Z,11.20
2023-01-29T12:57:56.481Z,12.27
2023-01-29T13:00:27.301Z,13.40
2023-01-29T13:03:00.115Z,13.57
2023-01-29T13:05:30.678Z,11.30
2023-01-29T13:08:03.012Z,14.43
2023-01-29T13:10:36.626Z,8.70
2023-01-29T13:13:10.916Z,12.13
2023-01-29T13:15:40.460Z,12.23
2023-01-29T13:18:29.716Z,13.17
2023-01-29T13:20:58.389Z,11.43
2023-01-29T13:23:32.265Z,10.40
2023-01-29T13:26:00.974Z,12.70
2023-01-29T13:28:28.571Z,10.67
2023-01-29T13:31:13.899Z,10.50
2023-01-29T13:33:42.641Z,9.90
2023-01-29T13:36:17.760Z,8.60
2023-01-29T13:38:45.327Z,10.87
2023-01-29T13:41:14.468Z,8.67
2023-01-29T13:43:48.629Z,10.87
2023-01-29T13:46:20.630Z,14.33
2023-01-29T13:48:50.561Z,13.30
2023-01-29T13:51:21.548Z,10.47
2023-01-29T13:53:56.159Z,11.57
2023-01-29T13:56:43.105Z,12.30
2023-01-29T13:59:23.355Z,13.90
2023-01-29T14:02:23.393Z,12.87
2023-01-29T14:04:50.852Z,14.77
2023-01-29T14:07:48.827Z,17.77
2023-01-29T14:10:18.825Z,17.20
2023-01-29T14:13:22.068Z,9.40
2023-01-29T14:16:32.798Z,11.93
2023-01-29T14:19:02.255Z,12.93
2023-01-29T14:21:32.138Z,10.00
2023-01-29T14:24:08.331Z,14.00
2023-01-29T14:26:44.459Z,16.83
2023-01-29T14:29:32.541Z,22.97
2023-01-29T14:32:13.153Z,19.47
2023-01-29T14:34:45.328Z,21.07
2023-01-29T14:37:22.277Z,19.80
2023-01-29T14:39:51.214Z,19.80
2023-01-29T14:42:23.839Z,30.17
2023-01-29T14:45:22.044Z,26.50
2023-01-29T14:48:01.920Z,23.80
2023-01-29T14:50:48.968Z,16.17
2023-01-29T14:53:28.104Z,20.17
2023-01-29T14:55:59.154Z,21.83
2023-01-29T14:58:35.635Z,23.90
2023-01-29T15:01:07.397Z,30.13
2023-01-29T15:03:43.235Z,19.67
2023-01-29T15:06:17.004Z,22.47
2023-01-29T15:08:49.293Z,20.67
2023-01-29T15:11:34.254Z,17.03
2023-01-29T15:14:25.886Z,11.70
2023-01-29T15:17:06.462Z,13.70
2023-01-29T15:19:36.945Z,14.60
2023-01-29T15:22:10.294Z,14.47
2023-01-29T15:24:38.327Z,16.43
2023-01-29T15:27:10.699Z,13.93
2023-01-29T15:29:39.532Z,14.67
2023-01-29T15:32:11.061Z,14.47
2023-01-29T15:34:41.643Z,14.50
2023-01-29T15:37:28.436Z,14.13
2023-01-29T15:39:55.969Z,14.50
2023-01-29T15:42:25.116Z,12.60
2023-01-29T15:44:54.198Z,10.70
2023-01-29T15:47:24.224Z,14.40
2023-01-29T15:49:52.082Z,12.63
2023-01-29T15:52:24.399Z,15.23
2023-01-29T15:54:52.223Z,14.20
2023-01-29T15:57:23.279Z,13.90
2023-01-29T15:59:53.077Z,11.47
2023-01-29T16:02:36.850Z,14.53
2023-01-29T16:05:07.174Z,12.63
2023-01-29T16:07:36.358Z,14.87
2023-01-29T16:10:05.405Z,12.97
2023-01-29T16:12:33.820Z,11.47
2023-01-29T16:15:03.955Z,11.70
2023-01-29T16:17:36.278Z,12.43
2023-01-29T16:20:05.930Z,9.53
2023-01-29T16:22:36.066Z,12.70
2023-01-29T16:25:05.023Z,17.90
2023-01-29T16:27:33.375Z,21.07
2023-01-29T16:30:01.590Z,28.70
2023-01-29T16:32:29.905Z,21.10
2023-01-29T16:34:59.691Z,16.90
2023-01-29T16:37:28.927Z,20.23
2023-01-29T16:39:56.953Z,18.97
2023-01-29T16:42:29.055Z,13.10
2023-01-29T16:44:59.335Z,15.03
2023-01-29T16:47:32.689Z,12.70
2023-01-29T16:50:03.450Z,15.10
2023-01-29T16:52:32.323Z,12.80
2023-01-29T16:55:13.192Z,15.00
2023-01-29T16:57:41.790Z,13.23
2023-01-29T17:00:19.026Z,17.87
2023-01-29T17:02:46.702Z,23.90
2023-01-29T17:05:22.096Z,25.27
2023-01-29T17:07:50.037Z,19.07
2023-01-29T17:10:19.940Z,19.20
2023-01-29T17:12:55.894Z,16.80
2023-01-29T17:15:35.239Z,13.93
2023-01-29T17:18:02.740Z,10.40
2023-01-29T17:20:31.972Z,11.47
2023-01-29T17:22:59.196Z,9.87
2023-01-29T17:25:26.777Z,8.93
2023-01-29T17:27:54.123Z,9.20
2023-01-29T17:30:23.572Z,7.37
2023-01-29T17:32:50.902Z,9.93
2023-01-29T17:35:18.627Z,15.77
2023-01-29T17:37:47.150Z,12.80
2023-01-29T17:40:27.968Z,11.63
2023-01-29T17:42:55.237Z,11.60
2023-01-29T17:45:22.767Z,8.97
2023-01-29T17:47:50.046Z,11.60
2023-01-29T17:50:22.095Z,7.97
2023-01-29T17:52:50.265Z,8.80
2023-01-29T17:55:18.211Z,10.00
2023-01-29T17:57:46.188Z,7.87
2023-01-29T18:00:18.550Z,10.27
2023-01-29T18:02:45.896Z,8.50
2023-01-29T18:05:14.244Z,8.97
2023-01-29T18:07:44.077Z,9.30
2023-01-29T18:10:15.309Z,10.37
2023-01-29T18:12:42.533Z,7.17
2023-01-29T18:15:11.087Z,7.43
2023-01-29T18:17:39.145Z,8.67
2023-01-29T18:20:18.827Z,10.73
2023-01-29T18:22:46.676Z,9.50
2023-01-29T18:25:15.485Z,8.77
2023-01-29T18:27:43.022Z,10.40
2023-01-29T18:30:13.132Z,8.90
2023-01-29T18:32:40.580Z,9.53
2023-01-29T18:35:09.058Z,11.37
2023-01-29T18:37:36.378Z,9.37
2023-01-29T18:40:05.073Z,8.87
2023-01-29T18:42:35.178Z,9.00
2023-01-29T18:45:03.311Z,5.53
2023-01-29T18:47:30.595Z,11.03
2023-01-29T18:49:57.936Z,8.30
2023-01-29T18:52:25.833Z,9.57
2023-01-29T18:54:53.586Z,11.93
2023-01-29T18:58:28.419Z,10.17
2023-01-29T19:00:11.423Z,7.83
2023-01-29T19:02:38.717Z,10.13
2023-01-29T19:05:06.410Z,8.07
2023-01-29T19:07:33.701Z,8.20
2023-01-29T19:10:01.812Z,9.97
2023-01-29T19:12:29.041Z,10.00
2023-01-29T19:14:56.346Z,9.10
2023-01-29T19:17:24.672Z,8.70
2023-01-29T19:19:52.061Z,7.27
2023-01-29T19:22:19.690Z,8.03
2023-01-29T19:24:46.936Z,6.53
2023-01-29T19:27:14.241Z,7.53
2023-01-29T19:29:41.508Z,11.20
2023-01-29T19:32:09.212Z,9.23
2023-01-29T19:34:37.181Z,11.27
2023-01-29T19:37:04.540Z,9.07
2023-01-29T19:39:33.274Z,9.20
2023-01-29T19:42:00.772Z,9.50
2023-01-29T19:44:28.332Z,7.90
2023-01-29T19:46:55.861Z,9.20
2023-01-29T19:49:23.161Z,9.20
2023-01-29T19:51:55.240Z,8.30
2023-01-29T19:54:22.537Z,9.13
2023-01-29T19:56:49.803Z,8.80
2023-01-29T19:59:17.175Z,9.30
2023-01-29T20:01:44.428Z,6.67
2023-01-29T20:04:11.956Z,7.80
2023-01-29T20:06:39.234Z,10.40
2023-01-29T20:09:07.913Z,8.03
2023-01-29T20:11:35.193Z,8.20
2023-01-29T20:14:06.165Z,8.53
2023-01-29T20:16:33.736Z,7.80
2023-01-29T20:19:13.441Z,7.93
2023-01-29T20:21:42.615Z,9.53
2023-01-29T20:24:14.080Z,7.70
2023-01-29T20:26:43.715Z,8.20
2023-01-29T20:29:11.289Z,8.30
2023-01-29T20:31:38.789Z,8.60
2023-01-29T20:34:09.355Z,9.33
2023-01-29T20:36:36.582Z,9.53
2023-01-29T20:39:03.919Z,9.10
2023-01-29T20:41:32.275Z,8.33
2023-01-29T20:43:59.558Z,10.07
2023-01-29T20:46:30.097Z,9.07
2023-01-29T20:48:57.427Z,10.10
2023-01-29T20:51:24.796Z,8.83
2023-01-29T20:53:52.149Z,9.57
2023-01-29T20:56:32.065Z,8.57
2023-01-29T20:59:09.115Z,10.33
2023-01-29T21:01:36.477Z,11.13
2023-01-29T21:04:03.871Z,10.33
2023-01-29T21:06:31.424Z,9.37
2023-01-29T21:08:58.719Z,9.90
2023-01-29T21:11:26.140Z,9.10
2023-01-29T21:13:56.762Z,8.00
2023-01-29T21:16:26.281Z,8.47
2023-01-29T21:18:56.380Z,10.10
2023-01-29T21:21:23.733Z,9.33
2023-01-29T21:23:51.028Z,11.70
2023-01-29T21:26:18.534Z,9.17
2023-01-29T21:28:46.278Z,10.50
2023-01-29T21:31:15.531Z,7.87
2023-01-29T21:33:43.829Z,10.70
2023-01-29T21:36:11.786Z,9.93
2023-01-29T21:38:39.339Z,10.10
2023-01-29T21:41:08.894Z,9.63
2023-01-29T21:43:36.309Z,9.63
2023-01-29T21:46:10.811Z,9.53
2023-01-29T21:48:38.877Z,7.00
2023-01-29T21:51:07.452Z,11.63
2023-01-29T21:53:35.909Z,9.00
2023-01-29T21:56:04.761Z,9.93
2023-01-29T21:58:32.393Z,7.33
2023-01-29T22:01:18.516Z,9.43
2023-01-29T22:03:47.708Z,10.47
2023-01-29T22:06:15.869Z,10.27
2023-01-29T22:08:43.325Z,10.37
2023-01-29T22:11:11.081Z,9.43
2023-01-29T22:13:38.598Z,6.70
2023-01-29T22:16:06.555Z,6.83
2023-01-29T22:18:34.526Z,8.87
2023-01-29T22:21:02.198Z,9.10
2023-01-29T22:23:30.654Z,9.77
2023-01-29T22:26:02.706Z,7.80
2023-01-29T22:28:30.000Z,8.33
2023-01-29T22:31:01.334Z,9.27
2023-01-29T22:33:28.650Z,8.50
2023-01-29T22:35:56.259Z,6.17
2023-01-29T22:38:23.612Z,8.67
2023-01-29T22:40:52.116Z,7.30
2023-01-29T22:43:19.816Z,8.80
2023-01-29T22:45:47.493Z,8.80
2023-01-29T22:48:15.278Z,7.00
2023-01-29T22:50:53.050Z,8.70
2023-01-29T22:53:20.303Z,10.97
2023-01-29T22:55:54.639Z,8.00
2023-01-29T22:58:21.925Z,6.63
2023-01-29T23:00:50.740Z,11.40
2023-01-29T23:03:18.004Z,8.27
2023-01-29T23:05:45.237Z,9.20
2023-01-29T23:08:12.557Z,9.33
2023-01-29T23:10:39.794Z,11.33
2023-01-29T23:13:07.957Z,8.30
2023-01-29T23:15:35.265Z,7.43
2023-01-29T23:18:02.735Z,9.80
2023-01-29T23:20:30.058Z,9.63
2023-01-29T23:22:57.347Z,10.63
2023-01-29T23:25:45.382Z,8.47
2023-01-29T23:28:13.192Z,8.87
2023-01-29T23:30:40.506Z,8.43
2023-01-29T23:33:09.776Z,10.43
2023-01-29T23:35:39.405Z,8.60
2023-01-29T23:38:06.645Z,7.77
2023-01-29T23:40:33.930Z,10.03
2023-01-29T23:43:01.191Z,6.40
2023-01-29T23:45:29.175Z,8.27
2023-01-29T23:47:56.397Z,9.20
2023-01-29T23:50:23.660Z,7.30
2023-01-29T23:52:50.911Z,8.90
2023-01-29T23:55:18.229Z,6.30
2023-01-29T23:57:45.451Z,9.50
